createdAt,value
2023-04-02T00:11:40.448Z,10.62
2023-04-02T00:14:22.702Z,10.62
2023-04-02T00:17:06.469Z,10.61
2023-04-02T00:19:48.476Z,10.60
2023-04-02T00:22:34.548Z,10.55
2023-04-02T00:39:21.384Z,10.42
2023-04-02T00:42:04.393Z,10.41
2023-04-02T00:44:41.676Z,10.37
2023-04-02T00:47:27.431Z,10.34
2023-04-02T00:50:19.095Z,10.31
2023-04-02T00:53:02.417Z,10.27
2023-04-02T01:06:20.393Z,10.16
2023-04-02T01:09:12.070Z,10.13
2023-04-02T01:12:29.417Z,10.11
2023-04-02T01:15:12.714Z,10.07
2023-04-02T01:18:32.419Z,10.09
2023-04-02T01:31:46.553Z,10.06
2023-04-02T01:34:26.040Z,10.04
2023-04-02T01:37:41.417Z,10.02
2023-04-02T01:40:34.707Z,9.99
2023-04-02T01:43:29.411Z,9.94
2023-04-02T01:57:24.424Z,9.71
2023-04-02T02:00:04.881Z,9.67
2023-04-02T02:02:49.304Z,9.66
2023-04-02T02:05:23.996Z,9.63
2023-04-02T02:08:03.418Z,9.65
2023-04-02T02:10:39.520Z,9.65
2023-04-02T02:13:13.381Z,9.63
2023-04-02T02:25:31.405Z,9.67
2023-04-02T02:28:10.172Z,9.65
2023-04-02T02:30:55.545Z,9.61
2023-04-02T02:33:37.087Z,9.58
2023-04-02T02:36:30.415Z,9.54
2023-04-02T02:39:14.594Z,9.50
2023-04-02T02:52:22.365Z,9.41
2023-04-02T02:55:14.401Z,9.42
2023-04-02T02:58:00.820Z,9.38
2023-04-02T03:00:50.406Z,9.35
2023-04-02T03:03:32.940Z,9.30
2023-04-02T03:20:04.393Z,9.05
2023-04-02T03:22:46.609Z,9.01
2023-04-02T03:28:18.765Z,8.95
2023-04-02T03:31:00.471Z,8.94
2023-04-02T03:33:39.890Z,8.91
2023-04-02T03:46:44.428Z,8.75
2023-04-02T03:49:35.390Z,8.68
2023-04-02T03:52:14.128Z,8.63
2023-04-02T03:54:54.631Z,8.61
2023-04-02T03:57:37.683Z,8.59
2023-04-02T04:11:18.424Z,8.42
2023-04-02T04:14:07.380Z,8.40
2023-04-02T04:16:48.574Z,8.42
2023-04-02T04:19:45.445Z,8.44
2023-04-02T04:22:25.009Z,8.46
2023-04-02T04:39:06.400Z,8.30
2023-04-02T04:41:43.444Z,8.26
2023-04-02T04:44:31.400Z,8.23
2023-04-02T04:47:15.122Z,8.23
2023-04-02T04:50:04.413Z,8.21
2023-04-02T04:52:42.498Z,8.19
2023-04-02T05:05:45.356Z,8.02
2023-04-02T05:08:33.263Z,8.02
2023-04-02T05:11:15.210Z,8.00
2023-04-02T05:14:02.400Z,7.98
2023-04-02T05:16:47.140Z,7.96
2023-04-02T05:19:39.361Z,7.97
2023-04-02T05:33:02.375Z,7.83
2023-04-02T05:35:45.104Z,7.82
2023-04-02T05:38:31.379Z,7.84
2023-04-02T05:41:20.428Z,7.86
2023-04-02T05:44:13.402Z,7.84
2023-04-02T05:58:33.728Z,7.70
2023-04-02T06:01:30.345Z,7.64
2023-04-02T06:04:28.377Z,7.63
2023-04-02T06:07:10.620Z,7.59
2023-04-02T06:10:13.461Z,7.60
2023-04-02T06:12:54.397Z,7.61
2023-04-02T06:25:57.333Z,7.57
2023-04-02T06:28:48.366Z,7.54
2023-04-02T06:31:35.250Z,7.50
2023-04-02T06:34:25.913Z,7.50
2023-04-02T06:37:24.290Z,7.49
2023-04-02T06:53:57.398Z,7.42
2023-04-02T06:56:42.061Z,7.42
2023-04-02T06:59:31.348Z,7.40
2023-04-02T07:02:29.490Z,7.37
2023-04-02T07:19:04.363Z,7.31
2023-04-02T07:21:38.054Z,7.32
2023-04-02T07:24:13.354Z,7.29
2023-04-02T07:26:46.571Z,7.27
2023-04-02T07:29:22.340Z,7.25
2023-04-02T07:31:55.772Z,7.23
2023-04-02T07:34:32.081Z,7.24
2023-04-02T07:47:42.372Z,7.16
2023-04-02T07:50:17.886Z,7.14
2023-04-02T07:52:51.369Z,7.12
2023-04-02T07:55:24.682Z,7.14
2023-04-02T07:58:01.350Z,7.14
2023-04-02T08:11:56.374Z,7.00
2023-04-02T08:14:31.556Z,7.00
2023-04-02T08:17:05.416Z,6.97
2023-04-02T08:19:51.729Z,6.94
2023-04-02T08:22:34.353Z,6.96
2023-04-02T08:25:09.334Z,6.97
2023-04-02T08:27:42.375Z,6.97
2023-04-02T08:40:57.354Z,7.00
2023-04-02T08:44:13.202Z,6.98
2023-04-02T08:46:59.350Z,6.92
2023-04-02T08:49:44.258Z,6.88
2023-04-02T08:52:31.350Z,6.88
2023-04-02T09:05:52.363Z,6.94
2023-04-02T09:08:29.796Z,6.91
2023-04-02T09:11:16.345Z,6.89
2023-04-02T09:13:56.746Z,6.87
2023-04-02T09:16:54.347Z,6.83
2023-04-02T09:19:36.525Z,6.82
2023-04-02T09:32:55.298Z,6.84
2023-04-02T09:35:38.135Z,6.84
2023-04-02T09:38:20.679Z,6.83
2023-04-02T09:41:06.347Z,6.82
2023-04-02T09:43:39.826Z,6.80
2023-04-02T09:46:31.354Z,6.77
2023-04-02T09:49:17.461Z,6.74
2023-04-02T09:59:21.316Z,6.67
2023-04-02T10:02:00.731Z,6.67
2023-04-02T10:04:48.651Z,6.68
2023-04-02T10:07:33.463Z,6.68
2023-04-02T10:10:28.345Z,6.69
2023-04-02T10:13:08.669Z,6.70
2023-04-02T10:26:29.279Z,6.82
2023-04-02T10:29:39.333Z,6.81
2023-04-02T10:32:18.514Z,6.82
2023-04-02T10:35:05.353Z,6.81
2023-04-02T10:38:28.820Z,6.81
2023-04-02T10:54:55.322Z,6.88
2023-04-02T10:57:39.036Z,6.87
2023-04-02T11:00:31.336Z,6.91
2023-04-02T11:03:12.328Z,6.90
2023-04-02T11:05:57.184Z,6.90
2023-04-02T11:08:40.873Z,6.90
2023-04-02T11:21:58.714Z,6.83
2023-04-02T11:24:50.388Z,6.82
2023-04-02T11:27:27.762Z,6.81
2023-04-02T11:30:31.302Z,6.81
2023-04-02T11:33:41.386Z,6.81
2023-04-02T11:47:26.328Z,6.77
2023-04-02T11:50:09.384Z,6.76
2023-04-02T11:52:53.258Z,6.82
2023-04-02T11:55:38.626Z,6.83
2023-04-02T11:58:40.118Z,6.84
2023-04-02T12:15:04.322Z,6.84
2023-04-02T12:17:39.688Z,6.84
2023-04-02T12:20:28.310Z,6.85
2023-04-02T12:23:02.501Z,6.86
2023-04-02T12:25:40.484Z,6.86
2023-04-02T12:28:16.582Z,6.85
2023-04-02T12:41:10.275Z,6.75
2023-04-02T12:43:50.313Z,6.71
2023-04-02T12:46:23.812Z,6.69
2023-04-02T12:48:58.242Z,6.66
2023-04-02T12:51:32.179Z,6.66
2023-04-02T12:54:05.305Z,6.66
2023-04-02T13:06:29.293Z,6.68
2023-04-02T13:09:06.361Z,6.70
2023-04-02T13:11:47.295Z,6.74
2023-04-02T13:14:23.995Z,6.78
2023-04-02T13:17:04.297Z,6.84
2023-04-02T13:19:37.561Z,6.87
2023-04-02T13:33:01.306Z,6.96
2023-04-02T13:35:41.332Z,6.96
2023-04-02T13:38:14.538Z,6.98
2023-04-02T13:40:48.292Z,6.99
2023-04-02T13:43:21.745Z,7.00
2023-04-02T13:46:00.368Z,7.01
2023-04-02T13:48:35.988Z,7.04
2023-04-02T14:01:25.361Z,7.06
2023-04-02T14:04:08.382Z,7.06
2023-04-02T14:07:04.224Z,7.07
2023-04-02T14:10:04.294Z,7.08
2023-04-02T14:13:00.817Z,7.08
2023-04-02T14:26:31.247Z,7.12
2023-04-02T14:29:22.099Z,7.13
2023-04-02T14:32:05.063Z,7.14
2023-04-02T14:34:59.366Z,7.14
2023-04-02T14:37:46.797Z,7.16
2023-04-02T14:54:19.235Z,7.20
2023-04-02T14:56:58.060Z,7.23
2023-04-02T14:59:44.264Z,7.22
2023-04-02T15:02:30.193Z,7.21
2023-04-02T15:05:21.288Z,7.21
2023-04-02T15:08:03.090Z,7.23
2023-04-02T15:21:15.245Z,7.21
2023-04-02T15:24:09.263Z,7.21
2023-04-02T15:26:57.582Z,7.19
2023-04-02T15:29:53.289Z,7.19
2023-04-02T15:32:36.347Z,7.18
2023-04-02T15:49:11.271Z,7.15
2023-04-02T15:52:01.175Z,7.13
2023-04-02T15:55:09.217Z,7.12
2023-04-02T15:58:13.498Z,7.13
2023-04-02T16:14:38.259Z,7.07
2023-04-02T16:17:25.021Z,7.07
2023-04-02T16:20:24.275Z,7.06
2023-04-02T16:23:05.973Z,7.05
2023-04-02T16:25:59.131Z,7.04
2023-04-02T16:28:42.590Z,7.04
2023-04-02T16:41:58.236Z,7.00
2023-04-02T16:44:58.243Z,7.01
2023-04-02T16:47:53.685Z,7.01
2023-04-02T16:50:47.257Z,7.00
2023-04-02T16:53:47.841Z,7.00
2023-04-02T17:07:17.238Z,6.96
2023-04-02T17:10:00.302Z,6.96
2023-04-02T17:13:02.393Z,6.94
2023-04-02T17:15:45.255Z,6.94
2023-04-02T17:18:21.232Z,6.93
2023-04-02T17:34:36.279Z,6.88
2023-04-02T17:37:27.746Z,6.87
2023-04-02T17:40:27.360Z,6.87
2023-04-02T17:43:13.240Z,6.86
2023-04-02T17:45:59.313Z,6.85
2023-04-02T17:48:44.826Z,6.86
2023-04-02T18:01:53.208Z,6.80
2023-04-02T18:04:55.274Z,6.81
2023-04-02T18:07:43.006Z,6.81
2023-04-02T18:10:33.405Z,6.81
2023-04-02T18:13:23.330Z,6.80
2023-04-02T18:29:57.267Z,6.78
2023-04-02T18:33:15.150Z,6.78
2023-04-02T18:36:06.314Z,6.78
2023-04-02T18:38:47.555Z,6.78
2023-04-02T18:41:50.321Z,6.78
2023-04-02T18:44:53.615Z,6.77
2023-04-02T18:54:33.220Z,6.72
2023-04-02T18:57:14.560Z,6.72
2023-04-02T19:00:05.407Z,6.72
2023-04-02T19:02:46.908Z,6.71
2023-04-02T19:05:39.424Z,6.72
2023-04-02T19:08:22.005Z,6.70
2023-04-02T19:21:33.185Z,6.68
2023-04-02T19:24:42.223Z,6.68
2023-04-02T19:27:31.486Z,6.68
2023-04-02T19:30:39.231Z,6.67
2023-04-02T19:33:40.592Z,6.66
2023-04-02T19:50:02.242Z,6.63
2023-04-02T19:52:35.473Z,6.61
2023-04-02T19:55:09.233Z,6.61
2023-04-02T19:57:42.774Z,6.60
2023-04-02T20:00:20.941Z,6.59
2023-04-02T20:02:54.515Z,6.58
2023-04-02T20:15:00.194Z,6.58
2023-04-02T20:17:40.266Z,6.56
2023-04-02T20:20:13.841Z,6.57
2023-04-02T20:22:49.348Z,6.56
2023-04-02T20:25:22.517Z,6.55
2023-04-02T20:27:56.245Z,6.52
2023-04-02T20:41:09.233Z,6.51
2023-04-02T20:43:42.481Z,6.50
2023-04-02T20:46:19.323Z,6.50
2023-04-02T20:48:52.533Z,6.49
2023-04-02T20:51:26.230Z,6.49
2023-04-02T20:53:59.758Z,6.48
2023-04-02T21:10:16.201Z,6.43
2023-04-02T21:12:49.487Z,6.44
2023-04-02T21:15:23.216Z,6.45
2023-04-02T21:17:56.548Z,6.44
2023-04-02T21:20:30.214Z,6.44
2023-04-02T21:23:03.565Z,6.41
2023-04-02T21:35:54.204Z,6.32
2023-04-02T21:38:34.200Z,6.29
2023-04-02T21:41:13.171Z,6.29
2023-04-02T21:43:53.181Z,6.28
2023-04-02T21:46:29.523Z,6.27
2023-04-02T21:49:05.275Z,6.22
2023-04-02T22:02:17.211Z,6.17
2023-04-02T22:04:50.453Z,6.13
2023-04-02T22:07:24.952Z,6.10
2023-04-02T22:09:58.474Z,6.01
2023-04-02T22:12:32.198Z,5.94
2023-04-02T22:15:07.019Z,5.90
2023-04-02T22:28:06.162Z,5.79
2023-04-02T22:30:46.177Z,5.78
2023-04-02T22:33:19.538Z,5.75
2023-04-02T22:35:56.243Z,5.73
2023-04-02T22:38:30.370Z,5.69
2023-04-02T22:41:13.193Z,5.65
2023-04-02T22:43:49.306Z,5.64
2023-04-02T22:56:37.139Z,5.63
2023-04-02T22:59:19.173Z,5.61
2023-04-02T23:01:52.547Z,5.57
2023-04-02T23:04:26.182Z,5.54
2023-04-02T23:06:59.500Z,5.53
2023-04-02T23:09:42.096Z,5.51
2023-04-02T23:22:54.203Z,5.31
2023-04-02T23:25:27.450Z,5.29
2023-04-02T23:28:01.162Z,5.27
2023-04-02T23:30:34.658Z,5.25
2023-04-02T23:33:08.244Z,5.26
2023-04-02T23:48:46.151Z,5.20
2023-04-02T23:51:26.184Z,5.21
2023-04-02T23:53:59.626Z,5.19
2023-04-02T23:56:34.862Z,5.20
2023-04-02T23:59:08.558Z,5.18
